createdAt,value
2018-06-12T00:01:16.955Z,11.37
2018-06-12T00:03:47.887Z,5.93
2018-06-12T00:06:17.348Z,11.10
2018-06-12T00:08:49.401Z,10.17
2018-06-12T00:11:18.553Z,6.40
2018-06-12T00:13:47.580Z,7.03
2018-06-12T00:16:22.059Z,8.23
2018-06-12T00:18:53.671Z,8.63
2018-06-12T00:21:25.786Z,9.97
2018-06-12T00:23:57.790Z,9.13
2018-06-12T00:26:28.490Z,5.73
2018-06-12T00:29:02.742Z,7.83
2018-06-12T00:31:32.306Z,5.83
2018-06-12T00:34:01.847Z,7.30
2018-06-12T00:36:30.810Z,6.57
2018-06-12T00:39:00.887Z,9.27
2018-06-12T00:41:30.526Z,7.87
2018-06-12T00:43:59.462Z,6.83
2018-06-12T00:46:28.818Z,9.30
2018-06-12T00:48:59.075Z,8.17
2018-06-12T00:51:28.714Z,7.37
2018-06-12T00:53:57.919Z,10.23
2018-06-12T00:56:38.173Z,9.90
2018-06-12T00:59:07.603Z,8.53
2018-06-12T01:01:36.943Z,7.60
2018-06-12T01:04:06.198Z,6.43
2018-06-12T01:06:36.795Z,7.13
2018-06-12T01:09:07.808Z,12.97
2018-06-12T01:11:37.024Z,7.37
2018-06-12T01:14:06.560Z,7.83
2018-06-12T01:16:37.407Z,9.53
2018-06-12T01:19:06.607Z,13.47
2018-06-12T01:21:37.018Z,10.27
2018-06-12T01:24:06.510Z,14.50
2018-06-12T01:26:39.376Z,7.87
2018-06-12T01:29:11.214Z,10.97
2018-06-12T01:31:42.986Z,12.10
2018-06-12T01:34:12.544Z,12.20
2018-06-12T01:36:42.227Z,12.13
2018-06-12T01:39:11.964Z,9.00
2018-06-12T01:41:41.610Z,12.57
2018-06-12T01:44:11.435Z,12.90
2018-06-12T01:46:40.452Z,9.87
2018-06-12T01:49:10.071Z,14.03
2018-06-12T01:51:41.536Z,11.20
2018-06-12T01:54:11.474Z,15.97
2018-06-12T01:56:43.186Z,12.80
2018-06-12T01:59:13.358Z,14.70
2018-06-12T02:01:45.347Z,13.90
2018-06-12T02:04:22.324Z,11.13
2018-06-12T02:06:52.011Z,15.67
2018-06-12T02:15:02.102Z,14.50
2018-06-12T02:17:31.526Z,11.53
2018-06-12T02:20:01.050Z,17.50
2018-06-12T02:22:32.258Z,12.00
2018-06-12T02:25:02.547Z,18.37
2018-06-12T02:27:33.688Z,27.10
2018-06-12T02:30:02.990Z,15.97
2018-06-12T02:32:31.887Z,13.67
2018-06-12T02:35:01.808Z,15.73
2018-06-12T02:37:30.845Z,15.03
2018-06-12T02:39:59.729Z,20.43
2018-06-12T02:42:29.247Z,20.50
2018-06-12T02:44:59.197Z,19.87
2018-06-12T02:47:27.922Z,17.47
2018-06-12T02:49:56.864Z,17.30
2018-06-12T02:52:26.358Z,20.17
2018-06-12T02:54:55.323Z,17.80
2018-06-12T02:57:28.005Z,17.60
2018-06-12T02:59:57.173Z,21.50
2018-06-12T03:02:26.116Z,21.23
2018-06-12T03:04:55.266Z,17.13
2018-06-12T03:07:24.890Z,21.67
2018-06-12T03:09:53.786Z,15.37
2018-06-12T03:12:22.650Z,17.43
2018-06-12T03:14:51.907Z,17.43
2018-06-12T03:17:21.213Z,20.40
2018-06-12T03:19:50.654Z,19.13
2018-06-12T03:22:19.485Z,18.10
2018-06-12T03:24:48.798Z,17.97
2018-06-12T03:27:17.815Z,20.97
2018-06-12T03:29:47.345Z,22.37
2018-06-12T03:32:16.381Z,16.87
2018-06-12T03:34:46.158Z,17.87
2018-06-12T03:37:15.354Z,22.03
2018-06-12T03:39:44.332Z,23.80
2018-06-12T03:42:13.792Z,24.07
2018-06-12T03:44:42.724Z,21.00
2018-06-12T03:47:11.461Z,24.83
2018-06-12T03:49:41.041Z,22.00
2018-06-12T03:52:10.569Z,23.47
2018-06-12T03:54:39.830Z,19.90
2018-06-12T03:57:08.745Z,20.53
2018-06-12T03:59:38.410Z,19.07
2018-06-12T04:02:08.029Z,23.40
2018-06-12T04:04:36.970Z,17.70
2018-06-12T04:07:06.026Z,18.30
2018-06-12T04:09:35.089Z,24.73
2018-06-12T04:12:04.291Z,22.63
2018-06-12T04:14:34.076Z,18.57
2018-06-12T04:17:04.507Z,18.40
2018-06-12T04:19:34.234Z,21.13
2018-06-12T04:22:04.609Z,18.97
2018-06-12T04:24:33.756Z,18.70
2018-06-12T04:27:03.201Z,18.67
2018-06-12T04:29:32.843Z,19.73
2018-06-12T04:32:02.497Z,22.00
2018-06-12T04:34:31.775Z,18.57
2018-06-12T04:37:01.078Z,23.03
2018-06-12T04:39:31.118Z,24.40
2018-06-12T04:42:01.229Z,26.00
2018-06-12T04:44:30.613Z,20.83
2018-06-12T04:46:59.596Z,23.80
2018-06-12T04:49:29.224Z,20.23
2018-06-12T04:51:58.214Z,18.90
2018-06-12T04:54:27.187Z,22.70
2018-06-12T04:56:57.464Z,21.60
2018-06-12T04:59:27.174Z,21.50
2018-06-12T05:01:58.633Z,17.47
2018-06-12T05:04:28.147Z,19.63
2018-06-12T05:06:57.068Z,17.00
2018-06-12T05:09:26.452Z,18.13
2018-06-12T05:11:55.448Z,17.63
2018-06-12T05:14:25.142Z,16.13
2018-06-12T05:16:54.536Z,15.33
2018-06-12T05:19:24.055Z,18.50
2018-06-12T05:21:53.635Z,22.23
2018-06-12T05:24:23.047Z,20.27
2018-06-12T05:26:51.881Z,18.17
2018-06-12T05:29:20.721Z,18.13
2018-06-12T05:31:50.134Z,21.20
2018-06-12T05:34:18.986Z,23.03
2018-06-12T05:36:48.533Z,20.50
2018-06-12T05:39:18.136Z,14.77
2018-06-12T05:41:47.413Z,18.00
2018-06-12T05:44:16.677Z,20.90
2018-06-12T05:46:45.700Z,16.23
2018-06-12T05:49:14.714Z,23.40
2018-06-12T05:51:43.598Z,21.20
2018-06-12T05:54:12.641Z,17.67
2018-06-12T05:56:41.520Z,18.23
2018-06-12T05:59:10.608Z,21.13
2018-06-12T06:01:39.580Z,20.27
2018-06-12T06:04:09.382Z,17.77
2018-06-12T06:06:39.921Z,21.37
2018-06-12T06:09:09.175Z,21.37
2018-06-12T06:11:38.469Z,19.83
2018-06-12T06:14:08.256Z,19.63
2018-06-12T06:16:37.606Z,18.73
2018-06-12T06:19:06.522Z,17.53
2018-06-12T06:21:35.555Z,15.67
2018-06-12T06:24:05.059Z,20.40
2018-06-12T06:26:34.297Z,18.90
2018-06-12T06:29:04.129Z,16.63
2018-06-12T06:31:34.004Z,15.43
2018-06-12T06:34:03.374Z,19.97
2018-06-12T06:36:33.079Z,14.90
2018-06-12T06:39:02.394Z,17.40
2018-06-12T06:41:31.645Z,15.97
2018-06-12T06:44:01.113Z,13.80
2018-06-12T06:46:30.675Z,13.10
2018-06-12T06:49:00.516Z,13.67
2018-06-12T06:51:30.585Z,15.63
2018-06-12T06:54:00.017Z,16.00
2018-06-12T06:56:28.818Z,15.33
2018-06-12T06:58:57.873Z,27.53
2018-06-12T07:01:27.748Z,12.93
2018-06-12T07:03:57.024Z,15.20
2018-06-12T07:06:26.928Z,11.63
2018-06-12T07:08:56.034Z,14.83
2018-06-12T07:11:24.816Z,12.43
2018-06-12T07:13:53.416Z,14.07
2018-06-12T07:16:23.067Z,13.60
2018-06-12T07:18:52.087Z,17.47
2018-06-12T07:21:24.510Z,14.97
2018-06-12T07:23:53.129Z,12.97
2018-06-12T07:26:22.619Z,13.23
2018-06-12T07:28:51.596Z,14.37
2018-06-12T07:31:20.541Z,13.23
2018-06-12T07:33:49.269Z,11.03
2018-06-12T07:36:18.546Z,11.68
2018-06-12T07:38:47.354Z,11.08
2018-06-12T07:41:15.953Z,8.60
2018-06-12T07:43:44.777Z,9.30
2018-06-12T07:46:13.456Z,11.87
2018-06-12T07:48:42.046Z,10.23
2018-06-12T07:51:11.110Z,9.77
2018-06-12T07:53:39.869Z,12.60
2018-06-12T07:56:08.397Z,14.67
2018-06-12T07:58:37.745Z,9.40
2018-06-12T08:01:06.342Z,13.67
2018-06-12T08:03:34.990Z,13.50
2018-06-12T08:06:03.540Z,11.77
2018-06-12T08:08:32.197Z,12.87
2018-06-12T08:11:00.729Z,13.13
2018-06-12T08:13:29.300Z,12.90
2018-06-12T08:15:57.910Z,13.17
2018-06-12T08:18:26.402Z,12.40
2018-06-12T08:20:54.955Z,10.70
2018-06-12T08:23:23.481Z,10.27
2018-06-12T08:25:52.056Z,11.60
2018-06-12T08:28:20.621Z,11.33
2018-06-12T08:30:49.206Z,13.17
2018-06-12T08:33:17.817Z,12.53
2018-06-12T08:35:46.532Z,9.67
2018-06-12T08:38:15.217Z,13.63
2018-06-12T08:40:43.746Z,9.77
2018-06-12T08:43:12.509Z,13.90
2018-06-12T08:45:41.070Z,14.63
2018-06-12T08:48:09.749Z,10.00
2018-06-12T08:50:38.361Z,7.72
2018-06-12T08:53:07.302Z,9.43
2018-06-12T08:55:36.312Z,8.68
2018-06-12T08:58:04.827Z,16.45
2018-06-12T09:00:33.384Z,11.53
2018-06-12T09:03:01.855Z,7.80
2018-06-12T09:05:30.344Z,8.13
2018-06-12T09:07:58.871Z,7.78
2018-06-12T09:10:27.395Z,8.03
2018-06-12T09:12:56.195Z,9.00
2018-06-12T09:15:24.848Z,8.23
2018-06-12T09:17:53.481Z,8.10
2018-06-12T09:20:22.168Z,10.87
2018-06-12T09:22:51.057Z,9.63
2018-06-12T09:25:19.610Z,11.13
2018-06-12T09:27:48.333Z,7.73
2018-06-12T09:30:18.076Z,11.70
2018-06-12T09:32:47.220Z,9.70
2018-06-12T09:35:15.813Z,11.10
2018-06-12T09:37:44.367Z,7.70
2018-06-12T09:40:12.948Z,11.10
2018-06-12T09:42:41.659Z,10.33
2018-06-12T09:45:10.253Z,9.93
2018-06-12T09:47:39.012Z,12.33
2018-06-12T09:50:07.844Z,12.43
2018-06-12T09:52:36.759Z,10.90
2018-06-12T09:55:05.723Z,12.23
2018-06-12T09:57:34.690Z,9.83
2018-06-12T10:00:03.265Z,8.90
2018-06-12T10:02:31.972Z,9.23
2018-06-12T10:05:00.723Z,10.80
2018-06-12T10:07:30.438Z,11.60
2018-06-12T10:09:59.029Z,9.30
2018-06-12T10:12:27.590Z,12.13
2018-06-12T10:14:57.804Z,13.33
2018-06-12T10:17:26.437Z,10.60
2018-06-12T10:19:55.138Z,9.07
2018-06-12T10:22:24.290Z,10.17
2018-06-12T10:24:53.782Z,10.90
2018-06-12T10:27:22.389Z,9.17
2018-06-12T10:29:51.013Z,7.97
2018-06-12T10:32:21.398Z,13.37
2018-06-12T10:34:50.534Z,10.43
2018-06-12T10:37:19.229Z,7.93
2018-06-12T10:39:47.754Z,13.03
2018-06-12T10:42:16.290Z,8.23
2018-06-12T10:44:46.177Z,10.67
2018-06-12T10:47:14.885Z,10.37
2018-06-12T10:49:43.591Z,10.13
2018-06-12T10:52:12.921Z,11.57
2018-06-12T10:54:41.709Z,8.23
2018-06-12T10:57:10.673Z,9.50
2018-06-12T10:59:39.284Z,7.78
2018-06-12T11:02:07.778Z,8.20
2018-06-12T11:04:37.234Z,12.13
2018-06-12T11:07:05.856Z,11.80
2018-06-12T11:09:34.589Z,8.95
2018-06-12T11:12:03.576Z,7.75
2018-06-12T11:14:32.122Z,6.47
2018-06-12T11:17:00.969Z,9.03
2018-06-12T11:19:29.589Z,7.50
2018-06-12T11:21:59.434Z,6.23
2018-06-12T11:24:28.096Z,10.50
2018-06-12T11:26:57.076Z,7.93
2018-06-12T11:29:25.722Z,12.00
2018-06-12T11:31:54.669Z,8.70
2018-06-12T11:34:23.574Z,6.43
2018-06-12T11:36:52.139Z,6.90
2018-06-12T11:39:21.031Z,8.57
2018-06-12T11:41:49.933Z,6.60
2018-06-12T11:44:18.734Z,7.10
2018-06-12T11:46:47.317Z,8.27
2018-06-12T11:49:18.861Z,7.10
2018-06-12T11:51:47.471Z,11.93
2018-06-12T11:54:16.598Z,12.33
2018-06-12T11:56:45.189Z,7.90
2018-06-12T11:59:13.868Z,7.07
2018-06-12T12:01:42.761Z,10.37
2018-06-12T12:04:11.487Z,10.60
2018-06-12T12:06:40.204Z,11.57
2018-06-12T12:09:09.592Z,10.50
2018-06-12T12:11:38.457Z,12.17
2018-06-12T12:14:07.978Z,8.30
2018-06-12T12:16:36.548Z,6.70
2018-06-12T12:19:05.292Z,9.13
2018-06-12T12:21:33.823Z,8.60
2018-06-12T12:24:03.130Z,8.20
2018-06-12T12:26:31.846Z,8.30
2018-06-12T12:29:00.384Z,10.53
2018-06-12T12:31:29.254Z,9.10
2018-06-12T12:33:58.249Z,9.73
2018-06-12T12:36:26.938Z,9.73
2018-06-12T12:38:55.513Z,8.70
2018-06-12T12:41:24.313Z,9.40
2018-06-12T12:43:52.891Z,13.40
2018-06-12T12:46:21.892Z,10.40
2018-06-12T12:48:50.454Z,8.40
2018-06-12T12:51:18.940Z,10.87
2018-06-12T12:53:47.460Z,9.13
2018-06-12T12:56:16.458Z,13.80
2018-06-12T12:58:45.197Z,8.83
2018-06-12T13:01:13.977Z,10.40
2018-06-12T13:03:42.520Z,7.87
2018-06-12T13:06:11.063Z,12.10
2018-06-12T13:08:39.614Z,10.33
2018-06-12T13:11:08.382Z,8.50
2018-06-12T13:13:37.016Z,7.97
2018-06-12T13:16:06.446Z,8.00
2018-06-12T13:18:35.596Z,6.90
2018-06-12T13:21:04.104Z,10.97
2018-06-12T13:23:32.728Z,5.43
2018-06-12T13:26:02.288Z,8.57
2018-06-12T13:28:30.798Z,6.23
2018-06-12T13:30:59.477Z,8.77
2018-06-12T13:33:28.230Z,7.30
2018-06-12T13:35:56.807Z,7.53
2018-06-12T13:38:25.332Z,7.90
2018-06-12T13:40:53.933Z,7.17
2018-06-12T13:43:22.632Z,5.50
2018-06-12T13:45:51.140Z,9.77
2018-06-12T13:48:26.262Z,5.17
2018-06-12T13:50:54.844Z,6.80
2018-06-12T13:53:23.485Z,8.93
2018-06-12T13:55:52.026Z,8.53
2018-06-12T13:58:20.561Z,8.67
2018-06-12T14:00:49.082Z,8.10
2018-06-12T14:03:17.617Z,11.47
2018-06-12T14:05:46.232Z,14.33
2018-06-12T14:08:14.897Z,11.27
2018-06-12T14:10:43.442Z,11.33
2018-06-12T14:13:11.972Z,11.30
2018-06-12T14:15:40.778Z,10.57
2018-06-12T14:18:09.608Z,9.83
2018-06-12T14:20:38.517Z,13.13
2018-06-12T14:23:10.362Z,7.67
2018-06-12T14:25:39.128Z,7.53
2018-06-12T14:28:07.898Z,6.63
2018-06-12T14:30:36.729Z,8.60
2018-06-12T14:33:05.382Z,9.23
2018-06-12T14:35:34.139Z,8.57
2018-06-12T14:38:02.878Z,7.93
2018-06-12T14:40:31.931Z,8.57
2018-06-12T14:43:00.902Z,12.90
2018-06-12T14:45:29.864Z,9.33
2018-06-12T14:47:58.720Z,35.20
2018-06-12T14:50:27.476Z,8.83
2018-06-12T14:52:56.388Z,15.97
2018-06-12T14:55:25.263Z,9.73
2018-06-12T14:57:53.937Z,10.90
2018-06-12T15:00:22.818Z,10.87
2018-06-12T15:02:52.391Z,13.63
2018-06-12T15:05:20.987Z,11.60
2018-06-12T15:07:50.020Z,14.70
2018-06-12T15:10:18.820Z,15.27
2018-06-12T15:12:47.935Z,11.43
2018-06-12T15:15:16.809Z,16.13
2018-06-12T15:17:45.533Z,16.87
2018-06-12T15:20:14.201Z,13.80
2018-06-12T15:22:43.124Z,18.77
2018-06-12T15:25:11.894Z,14.87
2018-06-12T15:27:40.445Z,17.50
2018-06-12T15:30:09.014Z,16.87
2018-06-12T15:32:37.731Z,15.13
2018-06-12T15:35:06.278Z,17.17
2018-06-12T15:37:34.817Z,18.27
2018-06-12T15:40:03.645Z,17.20
2018-06-12T15:42:32.293Z,16.67
2018-06-12T15:45:01.527Z,14.97
2018-06-12T15:47:30.181Z,15.73
2018-06-12T15:49:58.826Z,16.70
2018-06-12T15:52:27.504Z,16.27
2018-06-12T15:54:56.673Z,17.00
2018-06-12T15:57:25.405Z,16.33
2018-06-12T15:59:53.941Z,17.60
2018-06-12T16:02:22.597Z,17.70
2018-06-12T16:04:51.360Z,17.20
2018-06-12T16:07:19.929Z,18.43
2018-06-12T16:09:48.597Z,18.17
2018-06-12T16:12:17.126Z,18.07
2018-06-12T16:14:45.663Z,24.40
2018-06-12T16:17:14.633Z,18.00
2018-06-12T16:19:43.700Z,18.30
2018-06-12T16:22:12.569Z,17.97
2018-06-12T16:24:41.674Z,19.33
2018-06-12T16:27:10.284Z,18.10
2018-06-12T16:29:38.822Z,20.93
2018-06-12T16:32:07.428Z,18.53
2018-06-12T16:34:35.980Z,18.93
2018-06-12T16:37:05.524Z,20.07
2018-06-12T16:39:34.307Z,22.27
2018-06-12T16:42:02.887Z,19.63
2018-06-12T16:44:32.481Z,21.27
2018-06-12T16:47:01.041Z,19.10
2018-06-12T16:49:29.661Z,20.00
2018-06-12T16:52:00.464Z,15.73
2018-06-12T16:54:29.021Z,17.60
2018-06-12T16:56:57.913Z,16.07
2018-06-12T16:59:27.190Z,16.87
2018-06-12T17:01:55.705Z,17.27
2018-06-12T17:04:24.237Z,18.37
2018-06-12T17:06:52.809Z,18.57
2018-06-12T17:09:21.363Z,20.00
2018-06-12T17:11:49.972Z,20.87
2018-06-12T17:14:19.504Z,16.60
2018-06-12T17:16:48.721Z,18.87
2018-06-12T17:19:17.389Z,14.43
2018-06-12T17:21:46.390Z,14.33
2018-06-12T17:24:14.954Z,14.97
2018-06-12T17:26:43.693Z,17.20
2018-06-12T17:29:12.571Z,19.17
2018-06-12T17:31:41.960Z,16.00
2018-06-12T17:34:10.822Z,16.77
2018-06-12T17:36:39.636Z,24.30
2018-06-12T17:39:09.072Z,17.80
2018-06-12T17:41:38.190Z,19.00
2018-06-12T17:44:07.024Z,17.60
2018-06-12T17:46:35.586Z,17.47
2018-06-12T17:49:04.146Z,16.93
2018-06-12T17:51:32.712Z,18.63
2018-06-12T17:54:01.268Z,21.73
2018-06-12T17:56:29.842Z,18.33
2018-06-12T17:58:58.425Z,17.97
2018-06-12T18:01:26.991Z,20.20
2018-06-12T18:03:55.595Z,20.80
2018-06-12T18:06:24.149Z,17.60
2018-06-12T18:08:52.671Z,17.03
2018-06-12T18:11:21.349Z,9.50
2018-06-12T18:13:49.991Z,6.63
2018-06-12T18:16:18.642Z,8.00
2018-06-12T18:18:47.173Z,6.83
2018-06-12T18:21:15.692Z,6.57
2018-06-12T18:23:44.272Z,3.67
2018-06-12T18:26:12.783Z,5.97
2018-06-12T18:28:41.369Z,4.03
2018-06-12T18:31:09.940Z,4.80
2018-06-12T18:33:38.608Z,4.43
2018-06-12T18:36:07.144Z,8.67
2018-06-12T18:38:35.778Z,6.63
2018-06-12T18:41:04.324Z,10.13
2018-06-12T18:43:32.860Z,7.50
2018-06-12T18:46:01.372Z,10.73
2018-06-12T18:48:29.906Z,10.93
2018-06-12T18:50:58.458Z,10.53
2018-06-12T18:53:26.995Z,14.20
2018-06-12T18:55:55.647Z,13.83
2018-06-12T18:58:24.247Z,12.93
2018-06-12T19:00:52.868Z,8.27
2018-06-12T19:03:21.394Z,12.60
2018-06-12T19:05:49.978Z,9.73
2018-06-12T19:08:18.497Z,9.50
2018-06-12T19:10:47.054Z,15.13
2018-06-12T19:13:15.621Z,14.63
2018-06-12T19:15:44.150Z,11.87
2018-06-12T19:18:12.707Z,13.77
2018-06-12T19:20:41.353Z,10.40
2018-06-12T19:23:10.051Z,12.37
2018-06-12T19:25:38.587Z,24.83
2018-06-12T19:28:07.209Z,17.50
2018-06-12T19:30:36.572Z,10.83
2018-06-12T19:33:05.108Z,12.93
2018-06-12T19:35:33.606Z,13.33
2018-06-12T19:38:04.286Z,16.13
2018-06-12T19:40:32.948Z,13.27
2018-06-12T19:43:01.487Z,13.77
2018-06-12T19:45:30.025Z,13.97
2018-06-12T19:47:58.715Z,13.60
2018-06-12T19:50:27.276Z,13.30
2018-06-12T19:52:55.888Z,11.97
2018-06-12T19:55:24.459Z,15.33
2018-06-12T19:57:53.071Z,14.53
2018-06-12T20:00:21.632Z,24.53
2018-06-12T20:02:50.262Z,20.40
2018-06-12T20:05:18.921Z,17.73
2018-06-12T20:07:47.597Z,23.27
2018-06-12T20:10:16.184Z,20.40
2018-06-12T20:12:44.920Z,22.43
2018-06-12T20:15:13.544Z,24.97
2018-06-12T20:17:42.247Z,22.67
2018-06-12T20:20:10.802Z,23.50
2018-06-12T20:22:39.400Z,25.37
2018-06-12T20:25:07.977Z,21.17
2018-06-12T20:27:36.625Z,28.70
2018-06-12T20:30:05.248Z,24.97
2018-06-12T20:32:33.836Z,20.57
2018-06-12T20:35:02.350Z,21.63
2018-06-12T20:37:31.061Z,24.90
2018-06-12T20:39:59.693Z,24.27
2018-06-12T20:42:28.274Z,24.57
2018-06-12T20:44:56.932Z,22.30
2018-06-12T20:47:25.544Z,23.03
2018-06-12T20:49:54.306Z,20.33
2018-06-12T20:52:22.962Z,19.17
2018-06-12T20:54:51.566Z,23.50
2018-06-12T20:57:20.087Z,24.00
2018-06-12T20:59:48.617Z,26.63
2018-06-12T21:02:17.296Z,26.30
2018-06-12T21:04:45.867Z,25.20
2018-06-12T21:07:14.578Z,26.67
2018-06-12T21:09:43.031Z,23.10
2018-06-12T21:12:11.658Z,27.47
2018-06-12T21:14:40.244Z,34.03
2018-06-12T21:17:08.801Z,31.37
2018-06-12T21:19:37.302Z,29.77
2018-06-12T21:22:05.824Z,38.20
2018-06-12T21:24:34.366Z,38.73
2018-06-12T21:27:02.880Z,38.00
2018-06-12T21:29:31.439Z,35.57
2018-06-12T21:32:00.020Z,39.27
2018-06-12T21:34:28.569Z,33.00
2018-06-12T21:36:57.205Z,32.63
2018-06-12T21:39:25.795Z,37.23
2018-06-12T21:41:54.303Z,32.63
2018-06-12T21:44:22.875Z,34.03
2018-06-12T21:46:51.512Z,32.03
2018-06-12T21:49:20.096Z,35.07
2018-06-12T21:51:48.841Z,39.10
2018-06-12T21:54:17.421Z,35.00
2018-06-12T21:56:45.982Z,37.33
2018-06-12T21:59:14.557Z,38.97
2018-06-12T22:01:43.101Z,35.27
2018-06-12T22:04:11.599Z,31.30
2018-06-12T22:06:40.208Z,28.17
2018-06-12T22:09:08.746Z,30.93
2018-06-12T22:11:37.332Z,28.47
2018-06-12T22:14:05.977Z,31.13
2018-06-12T22:16:34.566Z,32.07
2018-06-12T22:19:03.334Z,36.03
2018-06-12T22:21:31.858Z,37.67
2018-06-12T22:24:00.453Z,29.53
2018-06-12T22:26:29.172Z,27.70
2018-06-12T22:28:57.767Z,32.20
2018-06-12T22:31:26.416Z,31.83
2018-06-12T22:33:55.030Z,28.77
2018-06-12T22:36:23.693Z,33.73
2018-06-12T22:38:52.300Z,29.63
2018-06-12T22:41:20.855Z,31.17
2018-06-12T22:43:49.384Z,34.20
2018-06-12T22:46:18.033Z,34.13
2018-06-12T22:48:46.699Z,35.50
2018-06-12T22:51:15.340Z,32.10
2018-06-12T22:53:43.885Z,31.70
2018-06-12T22:56:12.423Z,34.23
2018-06-12T22:58:40.957Z,29.40
2018-06-12T23:01:09.506Z,32.50
2018-06-12T23:03:38.062Z,29.23
2018-06-12T23:06:06.754Z,30.70
2018-06-12T23:08:35.293Z,33.00
2018-06-12T23:11:03.885Z,29.17
2018-06-12T23:13:32.421Z,33.43
2018-06-12T23:16:01.008Z,31.80
2018-06-12T23:18:29.512Z,33.83
2018-06-12T23:22:06.277Z,35.63
2018-06-12T23:24:34.853Z,32.70
2018-06-12T23:27:03.424Z,30.40
2018-06-12T23:29:31.961Z,34.20
2018-06-12T23:32:00.585Z,30.03
2018-06-12T23:34:29.148Z,31.53
2018-06-12T23:36:57.925Z,32.53
2018-06-12T23:39:26.634Z,35.03
2018-06-12T23:41:55.084Z,38.73
2018-06-12T23:44:23.619Z,35.77
2018-06-12T23:46:52.178Z,36.40
2018-06-12T23:49:20.690Z,32.53
2018-06-12T23:51:49.257Z,37.23
2018-06-12T23:54:17.798Z,33.03
2018-06-12T23:56:46.313Z,36.27
2018-06-12T23:59:15.013Z,35.07
